Time;durP1;ratioP1;P1;durP2;ratioP2;P2;SDS_P1;SDS_P2;PMS_P1;PMS_P2;Temp;Humidity;BMP_temperature;BMP_pressure;BME280_temperature;BME280_humidity;BME280_pressure;Samples;Min_cycle;Max_cycle;Signal;HPM_P1;HPM_P2
2022/09/25 00:01:11;;;;;;;8.45;5.50;;;;;;;;;;5028057;28;20045;-79
2022/09/25 00:03:38;;;;;;;7.85;4.88;;;;;;;;;;5025189;28;20084;-79
2022/09/25 00:06:08;;;;;;;7.72;4.25;;;;;;;;;;5033996;28;20038;-79
2022/09/25 00:08:35;;;;;;;8.63;4.28;;;;;;;;;;5033188;28;20533;-79
2022/09/25 00:11:05;;;;;;;7.03;3.40;;;;;;;;;;5031568;28;20394;-80
2022/09/25 00:13:31;;;;;;;6.90;3.70;;;;;;;;;;5030677;28;20057;-79
2022/09/25 00:15:58;;;;;;;8.25;4.35;;;;;;;;;;5031920;28;20509;-79
2022/09/25 00:21:11;;;;;;;9.27;3.45;;;;;;;;;;5023031;28;20168;-79
2022/09/25 00:23:37;;;;;;;7.22;2.92;;;;;;;;;;5010513;28;20108;-79
2022/09/25 00:26:04;;;;;;;8.05;3.42;;;;;;;;;;5012543;28;20491;-79
2022/09/25 00:28:30;;;;;;;5.75;3.72;;;;;;;;;;5016489;28;20026;-79
2022/09/25 00:30:57;;;;;;;8.02;3.40;;;;;;;;;;5031672;28;20033;-79
2022/09/25 00:33:23;;;;;;;5.03;2.80;;;;;;;;;;5020968;28;20025;-79
2022/09/25 00:35:49;;;;;;;6.30;3.03;;;;;;;;;;5031008;28;20490;-79
2022/09/25 00:38:15;;;;;;;4.30;2.22;;;;;;;;;;5021515;28;20026;-79
2022/09/25 00:40:41;;;;;;;6.32;2.60;;;;;;;;;;5031211;28;20044;-79
2022/09/25 00:43:14;;;;;;;6.95;2.97;;;;;;;;;;5031224;28;20753;-78
2022/09/25 00:45:41;;;;;;;5.93;2.60;;;;;;;;;;5020300;28;20026;-79
2022/09/25 00:48:10;;;;;;;6.50;2.60;;;;;;;;;;5019479;28;20049;-79
2022/09/25 00:50:46;;;;;;;4.53;2.50;;;;;;;;;;5031373;28;20040;-79
2022/09/25 00:53:16;;;;;;;4.38;2.75;;;;;;;;;;5023883;28;20033;-79
2022/09/25 00:55:43;;;;;;;6.22;3.40;;;;;;;;;;5028390;28;20034;-79
2022/09/25 00:58:10;;;;;;;5.38;3.30;;;;;;;;;;5030529;28;20084;-79
2022/09/25 01:00:36;;;;;;;7.15;3.00;;;;;;;;;;5030781;28;20033;-79
2022/09/25 01:03:03;;;;;;;10.40;3.22;;;;;;;;;;5022593;28;20087;-79
2022/09/25 01:05:34;;;;;;;6.80;3.60;;;;;;;;;;5026484;28;20025;-79
2022/09/25 01:08:01;;;;;;;6.13;3.47;;;;;;;;;;5012137;28;20379;-79
2022/09/25 01:10:27;;;;;;;8.23;3.83;;;;;;;;;;5015093;28;20053;-79
2022/09/25 01:12:55;;;;;;;6.30;3.33;;;;;;;;;;5027095;28;20071;-79
2022/09/25 01:15:26;;;;;;;5.53;2.53;;;;;;;;;;5025440;28;20393;-79
2022/09/25 01:18:05;;;;;;;7.88;5.00;;;;;;;;;;5023705;28;20227;-79
2022/09/25 01:20:46;;;;;;;6.95;4.13;;;;;;;;;;5022188;28;20095;-79
2022/09/25 01:23:24;;;;;;;5.55;3.67;;;;;;;;;;5021635;28;20045;-79
2022/09/25 01:26:14;;;;;;;5.85;3.33;;;;;;;;;;5025520;28;20494;-79
2022/09/25 01:28:55;;;;;;;6.07;3.83;;;;;;;;;;5027331;28;20029;-78
2022/09/25 01:31:27;;;;;;;6.95;3.85;;;;;;;;;;5026941;28;20026;-79
2022/09/25 01:33:59;;;;;;;4.50;3.27;;;;;;;;;;5025899;28;20132;-79
2022/09/25 01:36:25;;;;;;;;;;;;;;;;;;5021283;28;20068;-79
2022/09/25 01:39:11;;;;;;;4.35;2.92;;;;;;;;;;5030403;28;20318;-79
2022/09/25 01:41:41;;;;;;;5.65;3.17;;;;;;;;;;5029019;28;20048;-78
2022/09/25 01:44:27;;;;;;;4.75;2.92;;;;;;;;;;5017819;28;20052;-79
2022/09/25 01:46:55;;;;;;;5.32;3.28;;;;;;;;;;5028775;28;20057;-79
2022/09/25 01:49:42;;;;;;;7.20;2.72;;;;;;;;;;5030297;28;20041;-79
2022/09/25 01:52:13;;;;;;;6.05;2.80;;;;;;;;;;5029918;28;20562;-79
2022/09/25 01:54:42;;;;;;;6.50;3.43;;;;;;;;;;5026713;28;20064;-79
2022/09/25 01:57:20;;;;;;;4.65;2.65;;;;;;;;;;5022732;28;20029;-79
2022/09/25 01:59:49;;;;;;;4.85;2.75;;;;;;;;;;5028843;28;20033;-79
2022/09/25 02:02:18;;;;;;;7.70;2.70;;;;;;;;;;5026990;28;20033;-79
2022/09/25 02:04:55;;;;;;;6.85;3.15;;;;;;;;;;5020142;28;20037;-79
2022/09/25 02:07:24;;;;;;;4.90;2.60;;;;;;;;;;5029177;28;20030;-79
2022/09/25 02:09:52;;;;;;;5.78;3.17;;;;;;;;;;5029073;28;20037;-79
2022/09/25 02:12:23;;;;;;;7.18;2.60;;;;;;;;;;5021061;28;20041;-79
2022/09/25 02:14:59;;;;;;;5.05;2.90;;;;;;;;;;5014257;28;20046;-78
2022/09/25 02:20:31;;;;;;;5.05;3.10;;;;;;;;;;5026447;28;20512;-79
2022/09/25 02:23:01;;;;;;;5.38;2.97;;;;;;;;;;5027699;28;20034;-79
2022/09/25 02:25:33;;;;;;;5.68;2.85;;;;;;;;;;5025266;28;20044;-78
2022/09/25 02:27:59;;;;;;;4.57;2.70;;;;;;;;;;5025407;28;20048;-79
2022/09/25 02:30:25;;;;;;;5.95;2.80;;;;;;;;;;5026130;28;20113;-78
2022/09/25 02:32:51;;;;;;;4.68;3.10;;;;;;;;;;5019890;28;20116;-79
2022/09/25 02:35:17;;;;;;;6.50;3.13;;;;;;;;;;5026845;28;20518;-79
2022/09/25 02:37:43;;;;;;;5.82;3.40;;;;;;;;;;5020967;28;20551;-78
2022/09/25 02:40:10;;;;;;;5.22;3.13;;;;;;;;;;5018050;28;20112;-78
2022/09/25 02:42:47;;;;;;;9.13;3.60;;;;;;;;;;5019451;28;20058;-79
2022/09/25 02:45:31;;;;;;;5.82;3.72;;;;;;;;;;5027996;28;20033;-78
2022/09/25 02:47:57;;;;;;;5.65;3.38;;;;;;;;;;5014608;28;20030;-78
2022/09/25 02:50:29;;;;;;;6.70;4.13;;;;;;;;;;5025034;28;20033;-79
2022/09/25 02:52:55;;;;;;;;;;;;;;;;;;5029522;28;20483;-78
2022/09/25 02:55:34;;;;;;;5.38;3.00;;;;;;;;;;5026156;28;19924;-79
2022/09/25 02:58:04;;;;;;;5.68;3.75;;;;;;;;;;5010045;28;20129;-78
2022/09/25 03:00:31;;;;;;;7.97;2.95;;;;;;;;;;5013369;28;20033;-78
2022/09/25 03:02:58;;;;;;;4.03;2.17;;;;;;;;;;5029058;28;20698;-78
2022/09/25 03:05:25;;;;;;;4.78;2.35;;;;;;;;;;5024861;28;20026;-78
2022/09/25 03:10:37;;;;;;;5.93;3.22;;;;;;;;;;5012660;28;20068;-78
2022/09/25 03:13:13;;;;;;;4.68;2.60;;;;;;;;;;5024756;28;20065;-78
2022/09/25 03:15:40;;;;;;;4.63;2.67;;;;;;;;;;5028858;28;20042;-78
2022/09/25 03:18:07;;;;;;;6.47;2.80;;;;;;;;;;5028712;28;20738;-78
2022/09/25 03:20:33;;;;;;;5.70;2.95;;;;;;;;;;5029659;28;20029;-79
2022/09/25 03:22:58;;;;;;;6.68;3.28;;;;;;;;;;5026403;28;20053;-79
2022/09/25 03:25:24;;;;;;;4.88;3.20;;;;;;;;;;5020158;28;20042;-78
2022/09/25 03:27:50;;;;;;;6.95;3.17;;;;;;;;;;5017386;28;20103;-78
2022/09/25 03:30:16;;;;;;;5.75;2.70;;;;;;;;;;5023541;28;20029;-78
2022/09/25 03:32:43;;;;;;;6.85;3.97;;;;;;;;;;5024018;28;20807;-79
2022/09/25 03:35:09;;;;;;;4.85;2.85;;;;;;;;;;5028415;28;20033;-79
2022/09/25 03:37:35;;;;;;;8.45;3.05;;;;;;;;;;5028523;28;20076;-79
2022/09/25 03:40:01;;;;;;;6.22;2.75;;;;;;;;;;5017641;28;20061;-78
2022/09/25 03:42:27;;;;;;;4.88;2.40;;;;;;;;;;5018200;28;20080;-79
2022/09/25 03:44:53;;;;;;;7.85;2.65;;;;;;;;;;5014778;28;20057;-78
2022/09/25 03:47:19;;;;;;;5.95;2.33;;;;;;;;;;5028178;28;20067;-79
2022/09/25 03:49:45;;;;;;;4.55;2.60;;;;;;;;;;5026136;28;20057;-79
2022/09/25 03:52:13;;;;;;;4.25;2.10;;;;;;;;;;5022363;28;20041;-78
2022/09/25 03:54:39;;;;;;;6.95;2.35;;;;;;;;;;5014315;28;20120;-79
2022/09/25 03:57:04;;;;;;;4.25;2.03;;;;;;;;;;5019303;28;20121;-79
2022/09/25 03:59:30;;;;;;;5.72;2.30;;;;;;;;;;5030713;28;20025;-78
2022/09/25 04:01:57;;;;;;;6.47;2.63;;;;;;;;;;5018642;28;20049;-79
2022/09/25 04:04:23;;;;;;;3.47;1.75;;;;;;;;;;5032375;28;20033;-79
2022/09/25 04:06:49;;;;;;;6.05;2.33;;;;;;;;;;5028862;28;20041;-78
2022/09/25 04:09:15;;;;;;;4.70;2.13;;;;;;;;;;5021211;28;20037;-78
2022/09/25 04:11:42;;;;;;;5.28;2.70;;;;;;;;;;5031481;28;20052;-78
2022/09/25 04:14:09;;;;;;;5.15;2.30;;;;;;;;;;5032098;28;20120;-78
2022/09/25 04:16:35;;;;;;;6.32;2.58;;;;;;;;;;5022849;28;20041;-78
2022/09/25 04:19:01;;;;;;;3.88;2.65;;;;;;;;;;5026630;28;20033;-79
2022/09/25 04:21:27;;;;;;;6.18;2.08;;;;;;;;;;5016252;28;20045;-78
2022/09/25 04:26:37;;;;;;;4.55;1.95;;;;;;;;;;5027748;28;20079;-78
2022/09/25 04:29:03;;;;;;;4.00;1.90;;;;;;;;;;5028776;28;20033;-78
2022/09/25 04:31:30;;;;;;;9.45;2.47;;;;;;;;;;5030847;28;20038;-78
2022/09/25 04:33:56;;;;;;;5.15;1.63;;;;;;;;;;5025393;28;20467;-78
2022/09/25 04:36:22;;;;;;;5.70;1.73;;;;;;;;;;5026062;28;20037;-78
2022/09/25 04:38:48;;;;;;;6.07;1.90;;;;;;;;;;5031496;28;20036;-78
2022/09/25 04:41:15;;;;;;;3.65;1.80;;;;;;;;;;5021483;28;20036;-78
2022/09/25 04:43:42;;;;;;;3.75;1.98;;;;;;;;;;5030410;28;20714;-78
2022/09/25 04:46:09;;;;;;;3.53;1.90;;;;;;;;;;5014008;28;20038;-79
2022/09/25 04:48:35;;;;;;;5.00;2.20;;;;;;;;;;5030927;28;20029;-78
2022/09/25 04:51:02;;;;;;;3.65;1.80;;;;;;;;;;5022748;28;20030;-78
2022/09/25 04:53:29;;;;;;;3.97;1.98;;;;;;;;;;5028681;28;20061;-78
2022/09/25 04:55:59;;;;;;;3.20;1.73;;;;;;;;;;5025130;28;20040;-78
2022/09/25 04:58:26;;;;;;;4.18;2.40;;;;;;;;;;5030076;28;20058;-78
2022/09/25 05:00:52;;;;;;;5.55;2.63;;;;;;;;;;5017975;28;20038;-78
2022/09/25 05:03:18;;;;;;;4.18;2.45;;;;;;;;;;5023835;28;20044;-78
2022/09/25 05:05:44;;;;;;;6.28;2.15;;;;;;;;;;5031785;28;20736;-78
2022/09/25 05:08:10;;;;;;;6.07;2.50;;;;;;;;;;5031323;28;20057;-77
2022/09/25 05:10:38;;;;;;;6.05;2.60;;;;;;;;;;5023631;28;20700;-78
2022/09/25 05:13:04;;;;;;;4.47;2.40;;;;;;;;;;5025823;28;20033;-78
2022/09/25 05:15:32;;;;;;;7.45;2.75;;;;;;;;;;5021666;28;20389;-78
2022/09/25 05:18:07;;;;;;;5.72;3.00;;;;;;;;;;5024657;28;20542;-78
2022/09/25 05:20:36;;;;;;;8.13;3.67;;;;;;;;;;5023948;28;20466;-78
2022/09/25 05:23:03;;;;;;;7.32;3.60;;;;;;;;;;5025496;28;20037;-77
2022/09/25 05:25:29;;;;;;;6.43;2.97;;;;;;;;;;5030093;28;20052;-78
2022/09/25 05:27:57;;;;;;;5.72;2.90;;;;;;;;;;5023049;28;20625;-78
2022/09/25 05:30:24;;;;;;;4.28;1.80;;;;;;;;;;5021381;28;20025;-78
2022/09/25 05:32:50;;;;;;;5.75;2.85;;;;;;;;;;5025666;28;20038;-77
2022/09/25 05:35:17;;;;;;;6.28;2.65;;;;;;;;;;5017470;28;20058;-77
2022/09/25 05:37:43;;;;;;;4.82;1.80;;;;;;;;;;5016077;28;20041;-78
2022/09/25 05:40:09;;;;;;;3.90;1.88;;;;;;;;;;5014286;28;20386;-77
2022/09/25 05:42:35;;;;;;;3.78;1.70;;;;;;;;;;5024678;28;20061;-77
2022/09/25 05:45:01;;;;;;;4.05;1.60;;;;;;;;;;5020316;28;20030;-77
2022/09/25 05:47:27;;;;;;;4.50;1.50;;;;;;;;;;5020266;28;20040;-77
2022/09/25 05:49:53;;;;;;;5.20;1.77;;;;;;;;;;5027068;28;20120;-77
2022/09/25 05:52:19;;;;;;;4.13;1.90;;;;;;;;;;5017211;28;20045;-78
2022/09/25 05:54:45;;;;;;;4.43;1.80;;;;;;;;;;5019948;28;20033;-78
2022/09/25 05:57:11;;;;;;;5.20;2.03;;;;;;;;;;5013857;28;20079;-78
2022/09/25 05:59:37;;;;;;;4.88;1.92;;;;;;;;;;5021948;28;20052;-77
2022/09/25 06:02:03;;;;;;;7.40;2.20;;;;;;;;;;5024220;28;20041;-78
2022/09/25 06:04:29;;;;;;;5.95;1.85;;;;;;;;;;5029979;28;20076;-78
2022/09/25 06:06:55;;;;;;;8.02;2.67;;;;;;;;;;5019090;28;20057;-78
2022/09/25 06:09:21;;;;;;;4.55;2.63;;;;;;;;;;5019096;28;20736;-79
2022/09/25 06:11:47;;;;;;;3.60;2.08;;;;;;;;;;5027762;28;20053;-78
2022/09/25 06:14:13;;;;;;;5.05;2.20;;;;;;;;;;5034994;28;20064;-78
2022/09/25 06:16:40;;;;;;;6.95;2.92;;;;;;;;;;5026023;28;20068;-79
2022/09/25 06:19:06;;;;;;;3.42;2.13;;;;;;;;;;5021653;28;20034;-78
2022/09/25 06:21:32;;;;;;;5.90;2.80;;;;;;;;;;5028625;28;20082;-79
2022/09/25 06:23:58;;;;;;;4.68;2.50;;;;;;;;;;5018299;28;20447;-79
2022/09/25 06:26:24;;;;;;;6.95;2.85;;;;;;;;;;5021700;28;20109;-79
2022/09/25 06:28:50;;;;;;;6.50;4.22;;;;;;;;;;5021356;28;20057;-78
2022/09/25 06:31:16;;;;;;;7.68;6.10;;;;;;;;;;5028507;28;20497;-79
2022/09/25 06:33:43;;;;;;;7.60;3.75;;;;;;;;;;5020007;28;20041;-79
2022/09/25 06:36:09;;;;;;;5.13;3.40;;;;;;;;;;5018558;28;20391;-79
2022/09/25 06:38:35;;;;;;;8.60;4.20;;;;;;;;;;5026727;28;20029;-79
2022/09/25 06:41:01;;;;;;;5.03;2.97;;;;;;;;;;5028315;28;20037;-79
2022/09/25 06:43:28;;;;;;;5.97;3.17;;;;;;;;;;5029183;28;20056;-79
2022/09/25 06:45:54;;;;;;;5.65;3.63;;;;;;;;;;5027714;28;20524;-79
2022/09/25 06:48:20;;;;;;;8.95;3.90;;;;;;;;;;5027754;28;20030;-79
2022/09/25 06:50:48;;;;;;;5.95;2.75;;;;;;;;;;5025280;28;20474;-79
2022/09/25 06:53:14;;;;;;;6.20;3.25;;;;;;;;;;5032039;28;20037;-79
2022/09/25 06:55:41;;;;;;;3.80;2.42;;;;;;;;;;5015728;28;20030;-79
2022/09/25 06:58:08;;;;;;;7.05;3.70;;;;;;;;;;5028136;28;20083;-78
2022/09/25 07:00:34;;;;;;;6.82;3.53;;;;;;;;;;5024185;28;20025;-78
2022/09/25 07:05:46;;;;;;;3.72;2.50;;;;;;;;;;5035545;28;20374;-78
2022/09/25 07:08:15;;;;;;;5.55;2.92;;;;;;;;;;5029597;28;20470;-79
2022/09/25 07:10:47;;;;;;;6.75;2.50;;;;;;;;;;5020276;28;20959;-78
2022/09/25 07:13:13;;;;;;;5.20;2.58;;;;;;;;;;5020662;28;20036;-79
2022/09/25 07:15:39;;;;;;;3.47;2.33;;;;;;;;;;5023705;28;20076;-78
2022/09/25 07:18:05;;;;;;;7.15;2.97;;;;;;;;;;5023789;28;20108;-78
2022/09/25 07:20:31;;;;;;;4.43;2.00;;;;;;;;;;5027422;28;20109;-78
2022/09/25 07:23:03;;;;;;;5.22;2.30;;;;;;;;;;5014237;28;20533;-78
2022/09/25 07:25:30;;;;;;;3.88;2.35;;;;;;;;;;5025037;28;20048;-78
2022/09/25 07:27:57;;;;;;;7.72;2.92;;;;;;;;;;5023182;28;20038;-79
2022/09/25 07:30:24;;;;;;;6.88;3.20;;;;;;;;;;5012768;28;20113;-78
2022/09/25 07:32:50;;;;;;;6.22;2.90;;;;;;;;;;5023348;28;20053;-79
2022/09/25 07:35:17;;;;;;;6.10;3.35;;;;;;;;;;5024468;28;20373;-79
2022/09/25 07:37:43;;;;;;;6.32;2.97;;;;;;;;;;5025040;28;20033;-78
2022/09/25 07:40:13;;;;;;;6.38;3.83;;;;;;;;;;5024861;28;20033;-78
2022/09/25 07:42:39;;;;;;;4.93;3.55;;;;;;;;;;5030764;28;20057;-79
2022/09/25 07:45:05;;;;;;;6.28;3.63;;;;;;;;;;5032571;28;20530;-78
2022/09/25 07:47:31;;;;;;;6.47;3.10;;;;;;;;;;5026584;28;20105;-78
2022/09/25 07:49:57;;;;;;;6.22;4.00;;;;;;;;;;5020481;28;20101;-78
2022/09/25 07:52:23;;;;;;;5.25;3.38;;;;;;;;;;5024309;28;20383;-78
2022/09/25 07:54:49;;;;;;;6.43;3.67;;;;;;;;;;5025876;28;20074;-78
2022/09/25 07:57:19;;;;;;;9.10;3.90;;;;;;;;;;5031629;28;20505;-79
2022/09/25 07:59:45;;;;;;;6.72;3.80;;;;;;;;;;5032239;28;20025;-79
2022/09/25 08:02:11;;;;;;;5.22;3.58;;;;;;;;;;5030545;28;20069;-77
2022/09/25 08:04:37;;;;;;;7.38;3.83;;;;;;;;;;5022055;28;20128;-78
2022/09/25 08:07:03;;;;;;;4.45;3.00;;;;;;;;;;5021282;28;20724;-79
2022/09/25 08:09:29;;;;;;;4.63;3.20;;;;;;;;;;5027939;28;20578;-79
2022/09/25 08:11:55;;;;;;;7.57;3.47;;;;;;;;;;5027376;28;20063;-77
2022/09/25 08:14:21;;;;;;;5.40;3.00;;;;;;;;;;5039722;28;20116;-79
2022/09/25 08:16:48;;;;;;;5.53;3.03;;;;;;;;;;5030387;28;20494;-78
2022/09/25 08:19:17;;;;;;;4.88;2.78;;;;;;;;;;5028417;28;20037;-78
2022/09/25 08:21:43;;;;;;;5.35;3.30;;;;;;;;;;5025554;28;20049;-78
2022/09/25 08:24:09;;;;;;;5.75;3.38;;;;;;;;;;5031550;28;20029;-79
2022/09/25 08:26:36;;;;;;;5.03;2.90;;;;;;;;;;5022381;28;20414;-79
2022/09/25 08:29:02;;;;;;;7.55;2.70;;;;;;;;;;5029955;28;20030;-79
2022/09/25 08:31:28;;;;;;;6.22;3.45;;;;;;;;;;5026244;28;20152;-79
2022/09/25 08:33:54;;;;;;;8.05;3.50;;;;;;;;;;5031949;28;20040;-79
2022/09/25 08:36:20;;;;;;;6.13;3.53;;;;;;;;;;5023204;28;20041;-79
2022/09/25 08:38:47;;;;;;;4.30;3.00;;;;;;;;;;5026879;28;20061;-79
2022/09/25 08:41:16;;;;;;;4.97;1.52;;;;;;;;;;5028618;28;20067;-78
2022/09/25 08:43:52;;;;;;;20.98;4.20;;;;;;;;;;5020178;28;20049;-79
2022/09/25 08:49:10;;;;;;;7.07;1.85;;;;;;;;;;5025577;28;20040;-78
2022/09/25 08:51:42;;;;;;;4.72;1.33;;;;;;;;;;5034903;28;20035;-78
2022/09/25 08:54:19;;;;;;;4.03;1.90;;;;;;;;;;5031579;28;20028;-77
2022/09/25 08:56:48;;;;;;;4.97;1.70;;;;;;;;;;5013631;28;20079;-77
2022/09/25 08:59:22;;;;;;;4.05;1.40;;;;;;;;;;5028667;28;20819;-77
2022/09/25 09:01:52;;;;;;;4.22;1.13;;;;;;;;;;5032402;28;20021;-77
2022/09/25 09:04:18;;;;;;;5.65;1.75;;;;;;;;;;5025677;28;20086;-77
2022/09/25 09:06:45;;;;;;;4.45;1.80;;;;;;;;;;5028390;28;20482;-77
2022/09/25 09:09:17;;;;;;;3.22;1.20;;;;;;;;;;5025075;28;20165;-77
2022/09/25 09:11:52;;;;;;;2.90;1.15;;;;;;;;;;5024645;28;20038;-77
2022/09/25 09:14:20;;;;;;;6.80;3.33;;;;;;;;;;5018946;28;20025;-76
2022/09/25 09:16:49;;;;;;;7.80;4.95;;;;;;;;;;5023096;28;20101;-77
2022/09/25 09:19:15;;;;;;;7.30;2.60;;;;;;;;;;5021957;28;20087;-77
2022/09/25 09:22:01;;;;;;;3.63;1.25;;;;;;;;;;5024815;28;20041;-77
2022/09/25 09:24:45;;;;;;;6.80;1.10;;;;;;;;;;5028584;28;20033;-77
2022/09/25 09:27:30;;;;;;;3.65;1.00;;;;;;;;;;5029189;28;20025;-77
2022/09/25 09:30:17;;;;;;;4.10;1.20;;;;;;;;;;5021331;28;20026;-77
2022/09/25 09:33:11;;;;;;;3.65;1.20;;;;;;;;;;5015669;28;20041;-76
2022/09/25 09:35:51;;;;;;;4.30;1.00;;;;;;;;;;5025237;28;20068;-77
2022/09/25 09:38:27;;;;;;;3.28;1.33;;;;;;;;;;5027806;28;20045;-77
2022/09/25 09:41:02;;;;;;;3.90;0.90;;;;;;;;;;5027296;28;20120;-75
2022/09/25 09:43:51;;;;;;;1.80;0.80;;;;;;;;;;5027339;28;20600;-76
2022/09/25 09:46:17;;;;;;;3.92;1.10;;;;;;;;;;5017998;28;20506;-76
2022/09/25 09:48:59;;;;;;;6.95;1.15;;;;;;;;;;5028267;28;20048;-76
2022/09/25 09:51:32;;;;;;;2.28;0.65;;;;;;;;;;5029885;28;20421;-76
2022/09/25 09:53:59;;;;;;;2.63;0.50;;;;;;;;;;5029779;28;20035;-77
2022/09/25 09:56:29;;;;;;;3.22;0.50;;;;;;;;;;5023741;28;20717;-76
2022/09/25 09:58:57;;;;;;;1.30;0.50;;;;;;;;;;5021322;28;20052;-76
2022/09/25 10:01:24;;;;;;;2.38;0.30;;;;;;;;;;5020766;28;20033;-77
2022/09/25 10:03:57;;;;;;;5.53;0.50;;;;;;;;;;5027004;28;20033;-76
2022/09/25 10:06:29;;;;;;;1.83;0.50;;;;;;;;;;5025547;28;20091;-76
2022/09/25 10:08:55;;;;;;;1.80;0.50;;;;;;;;;;5025920;28;20069;-76
2022/09/25 10:11:21;;;;;;;2.47;0.80;;;;;;;;;;5019180;28;20087;-76
2022/09/25 10:13:48;;;;;;;1.40;0.70;;;;;;;;;;5026479;28;20029;-76
2022/09/25 10:16:22;;;;;;;2.03;0.70;;;;;;;;;;5026366;28;20034;-77
2022/09/25 10:19:07;;;;;;;4.05;1.23;;;;;;;;;;5029077;28;20064;-76
2022/09/25 10:21:38;;;;;;;2.25;0.70;;;;;;;;;;5032379;28;20592;-76
2022/09/25 10:24:04;;;;;;;2.55;0.70;;;;;;;;;;5034521;28;20563;-76
2022/09/25 10:26:37;;;;;;;2.17;0.80;;;;;;;;;;5018200;28;20064;-77
2022/09/25 10:29:09;;;;;;;3.97;1.20;;;;;;;;;;5019550;28;20033;-77
2022/09/25 10:31:39;;;;;;;2.75;1.20;;;;;;;;;;5026360;28;20097;-77
2022/09/25 10:34:16;;;;;;;3.65;1.00;;;;;;;;;;5025278;28;20029;-77
2022/09/25 10:36:43;;;;;;;3.40;1.23;;;;;;;;;;5024965;28;20033;-77
2022/09/25 10:39:28;;;;;;;4.43;1.50;;;;;;;;;;5022616;28;20104;-77
2022/09/25 10:41:55;;;;;;;3.88;1.13;;;;;;;;;;5013769;28;20030;-77
2022/09/25 10:44:33;;;;;;;3.70;1.67;;;;;;;;;;5025826;28;20031;-77
2022/09/25 10:50:11;;;;;;;;;;;;;;;;;;5027326;28;20547;-77
2022/09/25 10:52:58;;;;;;;2.83;1.23;;;;;;;;;;5034471;28;19955;-77
2022/09/25 10:55:29;;;;;;;2.83;0.98;;;;;;;;;;5018362;28;20033;-76
2022/09/25 10:58:04;;;;;;;2.63;0.63;;;;;;;;;;5028503;28;20489;-76
2022/09/25 11:00:35;;;;;;;2.08;0.55;;;;;;;;;;5018032;28;20040;-76
2022/09/25 11:03:03;;;;;;;1.90;0.70;;;;;;;;;;5027946;28;20065;-76
2022/09/25 11:05:30;;;;;;;2.90;0.70;;;;;;;;;;5037970;28;20029;-77
2022/09/25 11:07:57;;;;;;;1.73;0.70;;;;;;;;;;5019968;28;20037;-76
2022/09/25 11:10:26;;;;;;;2.03;0.68;;;;;;;;;;5020912;28;20064;-77
2022/09/25 11:12:52;;;;;;;2.15;0.75;;;;;;;;;;5019389;28;20105;-76
2022/09/25 11:15:20;;;;;;;4.88;0.80;;;;;;;;;;5026468;28;20030;-76
2022/09/25 11:17:49;;;;;;;2.72;0.75;;;;;;;;;;5023139;28;20042;-76
2022/09/25 11:20:16;;;;;;;2.95;0.95;;;;;;;;;;5020236;28;20051;-77
2022/09/25 11:22:50;;;;;;;4.22;1.00;;;;;;;;;;5030019;28;20137;-77
2022/09/25 11:25:22;;;;;;;5.13;1.13;;;;;;;;;;5018198;28;20127;-77
2022/09/25 11:27:53;;;;;;;6.82;1.08;;;;;;;;;;5026233;28;20040;-76
2022/09/25 11:30:21;;;;;;;3.13;1.10;;;;;;;;;;5019725;28;20026;-76
2022/09/25 11:33:06;;;;;;;2.70;0.80;;;;;;;;;;5034391;28;20479;-77
2022/09/25 11:36:10;;;;;;;1.92;0.90;;;;;;;;;;5019483;28;20035;-77
2022/09/25 11:41:37;;;;;;;1.92;0.88;;;;;;;;;;5022890;28;20043;-76
2022/09/25 11:44:06;;;;;;;2.05;0.75;;;;;;;;;;5026026;28;20045;-76
2022/09/25 11:46:34;;;;;;;2.97;0.95;;;;;;;;;;5023935;28;20040;-76
2022/09/25 11:49:14;;;;;;;2.40;0.90;;;;;;;;;;5027698;28;20026;-76
2022/09/25 11:51:54;;;;;;;2.47;0.93;;;;;;;;;;5021923;28;20498;-77
2022/09/25 11:54:26;;;;;;;3.45;1.00;;;;;;;;;;5013076;28;20026;-77
2022/09/25 11:56:59;;;;;;;2.25;0.70;;;;;;;;;;5026947;28;20772;-77
2022/09/25 11:59:44;;;;;;;2.28;0.95;;;;;;;;;;5019450;28;20637;-76
2022/09/25 12:02:19;;;;;;;2.00;0.73;;;;;;;;;;5018139;28;20060;-76
2022/09/25 12:04:55;;;;;;;1.35;0.60;;;;;;;;;;5031925;28;20764;-76
2022/09/25 12:07:34;;;;;;;2.72;0.77;;;;;;;;;;5030785;28;20029;-76
2022/09/25 12:10:19;;;;;;;1.02;0.50;;;;;;;;;;5019740;28;20030;-76
2022/09/25 12:12:46;;;;;;;2.45;0.45;;;;;;;;;;5027282;28;20057;-76
2022/09/25 12:15:13;;;;;;;1.10;0.40;;;;;;;;;;5026264;28;20029;-76
2022/09/25 12:17:47;;;;;;;4.13;0.40;;;;;;;;;;5039786;28;20239;-76
2022/09/25 12:20:32;;;;;;;0.80;0.40;;;;;;;;;;5019844;28;20033;-76
2022/09/25 12:23:07;;;;;;;2.88;0.43;;;;;;;;;;5027591;28;20163;-76
2022/09/25 12:25:50;;;;;;;1.35;0.30;;;;;;;;;;5026259;28;20433;-76
2022/09/25 12:28:19;;;;;;;3.17;0.70;;;;;;;;;;5026550;28;20900;-76
2022/09/25 12:31:00;;;;;;;1.77;0.52;;;;;;;;;;5030455;28;20037;-77
2022/09/25 12:33:39;;;;;;;1.85;0.50;;;;;;;;;;5023263;28;20529;-78
2022/09/25 12:36:22;;;;;;;4.65;1.00;;;;;;;;;;5035279;28;20046;-77
2022/09/25 12:39:01;;;;;;;3.92;0.77;;;;;;;;;;5028655;28;20380;-77
2022/09/25 12:41:34;;;;;;;2.85;0.32;;;;;;;;;;5026291;28;20113;-78
2022/09/25 12:44:03;;;;;;;1.05;0.40;;;;;;;;;;5023648;28;20064;-78
2022/09/25 12:46:33;;;;;;;4.05;0.52;;;;;;;;;;5030254;28;20056;-77
2022/09/25 12:49:19;;;;;;;1.48;0.40;;;;;;;;;;5031906;28;20481;-78
2022/09/25 12:51:50;;;;;;;2.33;0.60;;;;;;;;;;5024619;28;20187;-77
2022/09/25 12:54:16;;;;;;;1.27;0.65;;;;;;;;;;5028839;28;20029;-77
2022/09/25 12:56:52;;;;;;;2.88;0.63;;;;;;;;;;5034889;28;20061;-77
2022/09/25 12:59:21;;;;;;;2.28;0.75;;;;;;;;;;5022658;28;20030;-77
2022/09/25 13:01:56;;;;;;;1.75;0.50;;;;;;;;;;5037150;28;20459;-77
2022/09/25 13:04:40;;;;;;;1.42;0.60;;;;;;;;;;5029053;28;20018;-77
2022/09/25 13:07:25;;;;;;;1.90;0.60;;;;;;;;;;5034153;28;20041;-77
2022/09/25 13:09:51;;;;;;;1.92;0.50;;;;;;;;;;5030133;28;20034;-77
2022/09/25 13:12:21;;;;;;;1.50;0.68;;;;;;;;;;5016978;28;20033;-77
2022/09/25 13:14:54;;;;;;;4.53;1.02;;;;;;;;;;5021409;28;20039;-76
2022/09/25 13:17:20;;;;;;;2.70;0.82;;;;;;;;;;5028483;28;20041;-76
2022/09/25 13:19:46;;;;;;;4.93;0.73;;;;;;;;;;5018201;28;20108;-77
2022/09/25 13:22:19;;;;;;;2.33;0.70;;;;;;;;;;5032003;28;20108;-77
2022/09/25 13:24:57;;;;;;;3.22;1.70;;;;;;;;;;5026242;28;20079;-77
2022/09/25 13:27:25;;;;;;;4.93;2.05;;;;;;;;;;5028275;28;20038;-77
2022/09/25 13:29:53;;;;;;;2.05;0.85;;;;;;;;;;5027630;28;20600;-78
2022/09/25 13:32:22;;;;;;;2.85;0.60;;;;;;;;;;5029526;28;20643;-78
2022/09/25 13:34:50;;;;;;;3.13;0.82;;;;;;;;;;5026483;28;20083;-78
2022/09/25 13:37:16;;;;;;;2.28;0.60;;;;;;;;;;5021540;28;20046;-78
2022/09/25 13:42:37;;;;;;;1.37;0.57;;;;;;;;;;5036462;28;20064;-77
2022/09/25 13:45:21;;;;;;;2.60;0.70;;;;;;;;;;5030399;28;20909;-77
2022/09/25 13:47:51;;;;;;;3.30;0.60;;;;;;;;;;5030946;28;20033;-77
2022/09/25 13:50:18;;;;;;;2.05;0.90;;;;;;;;;;5027183;28;20163;-77
2022/09/25 13:53:15;;;;;;;3.05;0.90;;;;;;;;;;5017656;28;20112;-77
2022/09/25 13:55:34;;;;;;;2.70;0.77;;;;;;;;;;5025922;28;20592;-76
2022/09/25 13:58:01;;;;;;;3.67;0.80;;;;;;;;;;5024903;28;20038;-77
2022/09/25 14:00:54;;;;;;;1.65;0.70;;;;;;;;;;5015038;28;20660;-77
2022/09/25 14:03:44;;;;;;;1.77;0.77;;;;;;;;;;5016185;28;20037;-77
2022/09/25 14:06:19;;;;;;;1.48;0.80;;;;;;;;;;5013117;28;20041;-77
2022/09/25 14:08:46;;;;;;;1.90;0.70;;;;;;;;;;5025050;28;20192;-76
2022/09/25 14:11:15;;;;;;;2.47;1.13;;;;;;;;;;5024178;28;20096;-76
2022/09/25 14:13:44;;;;;;;1.83;1.05;;;;;;;;;;5021531;28;20021;-76
2022/09/25 14:16:24;;;;;;;1.73;0.80;;;;;;;;;;5029657;28;20033;-76
2022/09/25 14:18:52;;;;;;;2.13;1.20;;;;;;;;;;5028496;28;20037;-76
2022/09/25 14:21:19;;;;;;;2.75;1.20;;;;;;;;;;5025766;28;20039;-76
2022/09/25 14:23:49;;;;;;;4.72;1.58;;;;;;;;;;5019763;28;20037;-76
2022/09/25 14:26:20;;;;;;;2.47;1.02;;;;;;;;;;5042567;28;20580;-76
2022/09/25 14:28:47;;;;;;;3.40;0.90;;;;;;;;;;5025865;28;20030;-76
2022/09/25 14:31:25;;;;;;;3.95;1.00;;;;;;;;;;5022293;28;20026;-76
2022/09/25 14:34:11;;;;;;;1.73;1.00;;;;;;;;;;5019077;28;20116;-76
2022/09/25 14:36:49;;;;;;;2.45;0.98;;;;;;;;;;5024152;28;20037;-76
2022/09/25 14:39:33;;;;;;;2.33;1.10;;;;;;;;;;5025387;28;20455;-76
2022/09/25 14:42:05;;;;;;;2.08;1.00;;;;;;;;;;5028489;28;20196;-76
2022/09/25 14:44:50;;;;;;;3.38;1.13;;;;;;;;;;5020270;28;20036;-76
2022/09/25 14:47:16;;;;;;;3.97;1.00;;;;;;;;;;5017652;28;20034;-75
2022/09/25 14:49:45;;;;;;;2.97;1.00;;;;;;;;;;5018685;28;20038;-75
2022/09/25 14:52:14;;;;;;;1.55;0.80;;;;;;;;;;5033592;28;20086;-76
2022/09/25 14:54:45;;;;;;;2.17;1.15;;;;;;;;;;5024491;28;20355;-76
2022/09/25 14:57:15;;;;;;;4.07;1.35;;;;;;;;;;5023759;28;20052;-75
2022/09/25 14:59:41;;;;;;;5.40;2.20;;;;;;;;;;5028745;28;20037;-75
2022/09/25 15:02:22;;;;;;;6.55;2.60;;;;;;;;;;5027406;28;20025;-76
2022/09/25 15:04:49;;;;;;;7.95;1.88;;;;;;;;;;5028452;28;20041;-75
2022/09/25 15:07:17;;;;;;;4.40;1.90;;;;;;;;;;5018744;28;20418;-76
2022/09/25 15:09:47;;;;;;;14.05;7.13;;;;;;;;;;5022864;28;20038;-76
2022/09/25 15:12:28;;;;;;;9.77;4.50;;;;;;;;;;5023878;28;20112;-76
2022/09/25 15:15:00;;;;;;;34.42;19.30;;;;;;;;;;5028340;28;20048;-76
2022/09/25 15:17:27;;;;;;;;;;;;;;;;;;5039513;28;20044;-75
2022/09/25 15:19:54;;;;;;;69.50;36.58;;;;;;;;;;5033447;28;19912;-76
2022/09/25 15:22:22;;;;;;;14.88;7.05;;;;;;;;;;5029004;28;20395;-76
2022/09/25 15:24:53;;;;;;;6.97;2.65;;;;;;;;;;5024899;28;20037;-76
2022/09/25 15:27:20;;;;;;;3.42;1.10;;;;;;;;;;5028532;28;20103;-76